sensor_id;sensor_type;location;lat;lon;timestamp;P1;durP1;ratioP1;P2;durP2;ratioP2
43554;SDS011;35085;40.398;-3.702;2024-02-23T00:04:14;3.13;;;0.70;;
43554;SDS011;35085;40.398;-3.702;2024-02-23T00:14:22;4.70;;;0.98;;
43554;SDS011;35085;40.398;-3.702;2024-02-23T00:24:30;2.50;;;0.45;;
43554;SDS011;35085;40.398;-3.702;2024-02-23T00:34:40;2.60;;;0.50;;
43554;SDS011;35085;40.398;-3.702;2024-02-23T00:44:48;3.63;;;1.00;;
43554;SDS011;35085;40.398;-3.702;2024-02-23T00:54:56;2.53;;;0.95;;
43554;SDS011;35085;40.398;-3.702;2024-02-23T01:05:05;3.85;;;0.80;;
43554;SDS011;35085;40.398;-3.702;2024-02-23T01:15:10;1.42;;;0.70;;
43554;SDS011;35085;40.398;-3.702;2024-02-23T01:25:18;2.35;;;0.70;;
43554;SDS011;35085;40.398;-3.702;2024-02-23T01:35:29;3.45;;;0.50;;
43554;SDS011;35085;40.398;-3.702;2024-02-23T01:45:39;3.78;;;0.57;;
43554;SDS011;35085;40.398;-3.702;2024-02-23T01:55:47;6.63;;;0.80;;
43554;SDS011;35085;40.398;-3.702;2024-02-23T02:05:56;4.60;;;0.60;;
43554;SDS011;35085;40.398;-3.702;2024-02-23T02:16:02;3.92;;;0.40;;
43554;SDS011;35085;40.398;-3.702;2024-02-23T02:26:11;7.25;;;0.47;;
43554;SDS011;35085;40.398;-3.702;2024-02-23T02:36:22;4.50;;;0.52;;
43554;SDS011;35085;40.398;-3.702;2024-02-23T02:46:31;5.50;;;0.93;;
43554;SDS011;35085;40.398;-3.702;2024-02-23T02:56:43;2.65;;;0.50;;
43554;SDS011;35085;40.398;-3.702;2024-02-23T03:06:46;4.10;;;1.05;;
43554;SDS011;35085;40.398;-3.702;2024-02-23T03:16:55;6.83;;;1.17;;
43554;SDS011;35085;40.398;-3.702;2024-02-23T03:27:03;7.03;;;0.82;;
43554;SDS011;35085;40.398;-3.702;2024-02-23T03:37:11;7.82;;;0.82;;
43554;SDS011;35085;40.398;-3.702;2024-02-23T03:47:22;5.75;;;0.77;;
43554;SDS011;35085;40.398;-3.702;2024-02-23T03:57:23;2.85;;;0.60;;
43554;SDS011;35085;40.398;-3.702;2024-02-23T04:07:31;4.53;;;0.93;;
43554;SDS011;35085;40.398;-3.702;2024-02-23T04:17:33;4.05;;;0.80;;
43554;SDS011;35085;40.398;-3.702;2024-02-23T04:27:40;4.82;;;0.80;;
43554;SDS011;35085;40.398;-3.702;2024-02-23T04:37:49;2.83;;;0.90;;
43554;SDS011;35085;40.398;-3.702;2024-02-23T04:47:57;5.05;;;0.90;;
43554;SDS011;35085;40.398;-3.702;2024-02-23T04:57:59;4.57;;;0.63;;
43554;SDS011;35085;40.398;-3.702;2024-02-23T05:08:07;3.78;;;0.30;;
43554;SDS011;35085;40.398;-3.702;2024-02-23T05:18:15;3.72;;;0.50;;
43554;SDS011;35085;40.398;-3.702;2024-02-23T05:28:23;4.07;;;0.98;;
43554;SDS011;35085;40.398;-3.702;2024-02-23T05:38:31;1.70;;;0.60;;
43554;SDS011;35085;40.398;-3.702;2024-02-23T05:48:40;2.60;;;0.52;;
43554;SDS011;35085;40.398;-3.702;2024-02-23T05:58:47;3.55;;;0.50;;
43554;SDS011;35085;40.398;-3.702;2024-02-23T06:08:55;2.97;;;0.30;;
43554;SDS011;35085;40.398;-3.702;2024-02-23T06:18:57;2.33;;;0.50;;
43554;SDS011;35085;40.398;-3.702;2024-02-23T06:29:02;5.97;;;0.90;;
43554;SDS011;35085;40.398;-3.702;2024-02-23T06:39:05;6.18;;;1.00;;
43554;SDS011;35085;40.398;-3.702;2024-02-23T06:49:14;5.22;;;0.60;;
43554;SDS011;35085;40.398;-3.702;2024-02-23T06:59:15;4.95;;;0.80;;
43554;SDS011;35085;40.398;-3.702;2024-02-23T07:09:23;4.25;;;1.33;;
43554;SDS011;35085;40.398;-3.702;2024-02-23T07:19:25;6.03;;;1.25;;
43554;SDS011;35085;40.398;-3.702;2024-02-23T07:29:33;9.57;;;1.70;;
43554;SDS011;35085;40.398;-3.702;2024-02-23T07:39:34;8.75;;;2.15;;
43554;SDS011;35085;40.398;-3.702;2024-02-23T07:49:43;6.13;;;1.90;;
43554;SDS011;35085;40.398;-3.702;2024-02-23T07:59:44;9.55;;;2.15;;
43554;SDS011;35085;40.398;-3.702;2024-02-23T08:09:52;7.35;;;1.88;;
43554;SDS011;35085;40.398;-3.702;2024-02-23T08:19:54;6.63;;;2.00;;
43554;SDS011;35085;40.398;-3.702;2024-02-23T08:30:03;5.70;;;1.87;;
43554;SDS011;35085;40.398;-3.702;2024-02-23T08:40:13;3.65;;;1.15;;
43554;SDS011;35085;40.398;-3.702;2024-02-23T08:50:23;3.75;;;1.17;;
43554;SDS011;35085;40.398;-3.702;2024-02-23T09:00:26;4.65;;;1.30;;
43554;SDS011;35085;40.398;-3.702;2024-02-23T09:10:36;5.10;;;0.95;;
43554;SDS011;35085;40.398;-3.702;2024-02-23T09:20:39;5.57;;;1.20;;
43554;SDS011;35085;40.398;-3.702;2024-02-23T09:30:48;5.82;;;1.75;;
43554;SDS011;35085;40.398;-3.702;2024-02-23T09:40:50;3.00;;;0.52;;
43554;SDS011;35085;40.398;-3.702;2024-02-23T09:50:56;3.28;;;0.45;;
43554;SDS011;35085;40.398;-3.702;2024-02-23T10:01:06;1.65;;;0.47;;
43554;SDS011;35085;40.398;-3.702;2024-02-23T10:11:13;3.45;;;1.30;;
43554;SDS011;35085;40.398;-3.702;2024-02-23T10:21:22;3.23;;;0.70;;
43554;SDS011;35085;40.398;-3.702;2024-02-23T10:31:34;1.85;;;0.50;;
43554;SDS011;35085;40.398;-3.702;2024-02-23T10:41:51;6.65;;;1.70;;
43554;SDS011;35085;40.398;-3.702;2024-02-23T10:51:59;5.88;;;2.00;;
43554;SDS011;35085;40.398;-3.702;2024-02-23T11:02:10;2.25;;;0.50;;
43554;SDS011;35085;40.398;-3.702;2024-02-23T11:12:12;3.97;;;0.75;;
43554;SDS011;35085;40.398;-3.702;2024-02-23T11:22:32;4.20;;;0.70;;
43554;SDS011;35085;40.398;-3.702;2024-02-23T11:32:45;2.60;;;0.40;;
43554;SDS011;35085;40.398;-3.702;2024-02-23T11:42:56;2.45;;;0.60;;
43554;SDS011;35085;40.398;-3.702;2024-02-23T11:53:05;1.77;;;0.63;;
43554;SDS011;35085;40.398;-3.702;2024-02-23T12:03:07;2.05;;;0.47;;
43554;SDS011;35085;40.398;-3.702;2024-02-23T12:13:14;3.33;;;0.75;;
43554;SDS011;35085;40.398;-3.702;2024-02-23T12:23:16;2.53;;;0.52;;
43554;SDS011;35085;40.398;-3.702;2024-02-23T12:33:23;3.80;;;1.02;;
43554;SDS011;35085;40.398;-3.702;2024-02-23T12:43:27;2.53;;;0.82;;
43554;SDS011;35085;40.398;-3.702;2024-02-23T12:53:33;2.80;;;0.95;;
43554;SDS011;35085;40.398;-3.702;2024-02-23T13:03:42;2.92;;;0.93;;
43554;SDS011;35085;40.398;-3.702;2024-02-23T13:13:52;3.10;;;0.73;;
43554;SDS011;35085;40.398;-3.702;2024-02-23T13:23:54;2.45;;;0.93;;
43554;SDS011;35085;40.398;-3.702;2024-02-23T13:34:04;2.92;;;0.30;;
43554;SDS011;35085;40.398;-3.702;2024-02-23T13:44:07;5.90;;;0.90;;
43554;SDS011;35085;40.398;-3.702;2024-02-23T13:54:16;2.97;;;0.80;;
43554;SDS011;35085;40.398;-3.702;2024-02-23T14:04:21;2.28;;;0.60;;
43554;SDS011;35085;40.398;-3.702;2024-02-23T14:14:29;4.00;;;1.70;;
43554;SDS011;35085;40.398;-3.702;2024-02-23T14:24:32;3.35;;;0.65;;
43554;SDS011;35085;40.398;-3.702;2024-02-23T14:34:41;2.67;;;0.83;;
43554;SDS011;35085;40.398;-3.702;2024-02-23T14:44:43;5.55;;;0.73;;
43554;SDS011;35085;40.398;-3.702;2024-02-23T14:54:52;2.13;;;0.50;;
43554;SDS011;35085;40.398;-3.702;2024-02-23T15:15:06;4.50;;;0.57;;
43554;SDS011;35085;40.398;-3.702;2024-02-23T15:25:15;2.88;;;0.60;;
43554;SDS011;35085;40.398;-3.702;2024-02-23T15:35:26;2.58;;;0.50;;
43554;SDS011;35085;40.398;-3.702;2024-02-23T15:45:33;1.35;;;0.40;;
43554;SDS011;35085;40.398;-3.702;2024-02-23T16:05:46;1.42;;;0.40;;
43554;SDS011;35085;40.398;-3.702;2024-02-23T16:26:05;1.63;;;0.50;;
43554;SDS011;35085;40.398;-3.702;2024-02-23T16:36:11;3.20;;;0.70;;
43554;SDS011;35085;40.398;-3.702;2024-02-23T16:46:20;2.13;;;0.70;;
43554;SDS011;35085;40.398;-3.702;2024-02-23T16:56:29;3.20;;;1.10;;
43554;SDS011;35085;40.398;-3.702;2024-02-23T17:06:39;1.42;;;0.57;;
43554;SDS011;35085;40.398;-3.702;2024-02-23T17:16:48;3.50;;;0.60;;
43554;SDS011;35085;40.398;-3.702;2024-02-23T17:26:59;1.88;;;0.40;;
43554;SDS011;35085;40.398;-3.702;2024-02-23T17:37:09;2.13;;;0.40;;
43554;SDS011;35085;40.398;-3.702;2024-02-23T17:47:19;1.98;;;0.60;;
43554;SDS011;35085;40.398;-3.702;2024-02-23T17:57:27;3.08;;;1.17;;
43554;SDS011;35085;40.398;-3.702;2024-02-23T18:07:36;4.18;;;1.13;;
43554;SDS011;35085;40.398;-3.702;2024-02-23T18:17:44;3.08;;;1.48;;
43554;SDS011;35085;40.398;-3.702;2024-02-23T18:27:53;3.40;;;0.63;;
43554;SDS011;35085;40.398;-3.702;2024-02-23T18:48:05;4.10;;;1.20;;
43554;SDS011;35085;40.398;-3.702;2024-02-23T18:58:11;3.13;;;1.10;;
43554;SDS011;35085;40.398;-3.702;2024-02-23T19:08:19;2.97;;;1.02;;
43554;SDS011;35085;40.398;-3.702;2024-02-23T19:18:27;4.38;;;1.15;;
43554;SDS011;35085;40.398;-3.702;2024-02-23T19:28:29;2.63;;;1.00;;
43554;SDS011;35085;40.398;-3.702;2024-02-23T19:38:38;3.58;;;1.50;;
43554;SDS011;35085;40.398;-3.702;2024-02-23T19:48:50;5.53;;;2.38;;
43554;SDS011;35085;40.398;-3.702;2024-02-23T19:59:00;5.72;;;2.78;;
43554;SDS011;35085;40.398;-3.702;2024-02-23T20:09:10;5.55;;;1.98;;
43554;SDS011;35085;40.398;-3.702;2024-02-23T20:19:17;3.88;;;1.73;;
43554;SDS011;35085;40.398;-3.702;2024-02-23T20:29:28;5.57;;;2.78;;
43554;SDS011;35085;40.398;-3.702;2024-02-23T20:39:37;5.75;;;2.42;;
43554;SDS011;35085;40.398;-3.702;2024-02-23T20:59:50;4.05;;;1.60;;
43554;SDS011;35085;40.398;-3.702;2024-02-23T21:10:02;3.90;;;1.45;;
43554;SDS011;35085;40.398;-3.702;2024-02-23T21:20:12;3.67;;;1.15;;
43554;SDS011;35085;40.398;-3.702;2024-02-23T21:40:23;3.25;;;1.38;;
43554;SDS011;35085;40.398;-3.702;2024-02-23T21:50:31;3.40;;;1.05;;
43554;SDS011;35085;40.398;-3.702;2024-02-23T22:00:39;4.40;;;0.77;;
43554;SDS011;35085;40.398;-3.702;2024-02-23T22:10:47;2.45;;;0.50;;
43554;SDS011;35085;40.398;-3.702;2024-02-23T22:20:55;5.78;;;0.70;;
43554;SDS011;35085;40.398;-3.702;2024-02-23T22:31:06;4.22;;;0.80;;
43554;SDS011;35085;40.398;-3.702;2024-02-23T22:41:14;1.92;;;0.45;;
43554;SDS011;35085;40.398;-3.702;2024-02-23T22:51:22;2.17;;;0.50;;
43554;SDS011;35085;40.398;-3.702;2024-02-23T23:01:23;1.52;;;0.47;;
43554;SDS011;35085;40.398;-3.702;2024-02-23T23:11:31;2.72;;;0.45;;
43554;SDS011;35085;40.398;-3.702;2024-02-23T23:21:39;5.05;;;0.85;;
43554;SDS011;35085;40.398;-3.702;2024-02-23T23:31:47;4.13;;;1.20;;
43554;SDS011;35085;40.398;-3.702;2024-02-23T23:41:55;1.40;;;0.30;;
43554;SDS011;35085;40.398;-3.702;2024-02-23T23:52:03;5.50;;;1.30;;
